^^
Daily Summary for March 19, 2023 Units:  Both    English   Metric
Daily Weekly Monthly Yearly Custom
  High: Low: Average:
Temperature: 55.0 °F /  12.8 °C 46.0 °F /  7.8 °C 49.1 °F /  9.5 °C
Dew Point: 47.0 °F /  8.3 °C 30.0 °F /  -1.1 °C 43 °F /  6.1 °C
Humidity: 94% 41% 82%
Wind Speed: 32mph /  51.5km/h - 7.8mph /  12.6km/h
Wind Gust: 31mph /  49.9km/h - -
Wind- - WSW
Pressure: 30.0 in /  1015.8 hPa 29.9 in /  1012.4 hPa -
Precipitation: 0.710 in /  18.03 mm    
Historical Graphs
 
 
Tabular Data for March 19, 2023
Time Temperature Dew Point Pressure Wind Wind Speed Wind Gust Humidity Rainfall Rate (Hourly) solar
00:04 52.0 °F /  11.1 °C 33.0 °F /  0.6 °C 30.0in /  1015.8hPa South 7mph /  11.3km/h 3mph /  4.8km/h 47% 0.000in /  0mm 0.00 W/m2
00:09 52.0 °F /  11.1 °C 33.0 °F /  0.6 °C 30.0in /  1015.8hPa South 4mph /  6.4km/h 7mph /  11.3km/h 47% 0.000in /  0mm 0.00 W/m2
00:14 53.0 °F /  11.7 °C 33.0 °F /  0.6 °C 30.0in /  1015.8hPa SSE 2mph /  3.2km/h 3mph /  4.8km/h 47% 0.000in /  0mm 0.00 W/m2
00:19 53.0 °F /  11.7 °C 35.0 °F /  1.7 °C 30.0in /  1015.8hPa SSE 2mph /  3.2km/h 2mph /  3.2km/h 51% 0.000in /  0mm 0.00 W/m2
00:24 53.0 °F /  11.7 °C 35.0 °F /  1.7 °C 30.0in /  1015.8hPa Calm   2mph /  3.2km/h 50% 0.000in /  0mm 0.00 W/m2
00:29 53.0 °F /  11.7 °C 35.0 °F /  1.7 °C 30.0in /  1015.8hPa Calm     50% 0.000in /  0mm 0.00 W/m2
00:34 53.0 °F /  11.7 °C 34.0 °F /  1.1 °C 30.0in /  1015.8hPa Calm     49% 0.000in /  0mm 0.00 W/m2
00:39 53.0 °F /  11.7 °C 34.0 °F /  1.1 °C 30.0in /  1015.8hPa South 4mph /  6.4km/h 1mph /  1.6km/h 49% 0.000in /  0mm 0.00 W/m2
00:44 53.0 °F /  11.7 °C 34.0 °F /  1.1 °C 30.0in /  1015.8hPa SW 4mph /  6.4km/h 3mph /  4.8km/h 49% 0.000in /  0mm 0.00 W/m2
00:49 53.0 °F /  11.7 °C 34.0 °F /  1.1 °C 30.0in /  1015.8hPa Calm     49% 0.000in /  0mm 0.00 W/m2
00:54 53.0 °F /  11.7 °C 34.0 °F /  1.1 °C 30.0in /  1015.8hPa SW 7mph /  11.3km/h 5mph /  8km/h 49% 0.000in /  0mm 0.00 W/m2
00:59 53.0 °F /  11.7 °C 30.0 °F /  -1.1 °C 30.0in /  1015.8hPa SW 6mph /  9.7km/h 7mph /  11.3km/h 42% 0.000in /  0mm 0.00 W/m2
01:04 53.0 °F /  11.7 °C 30.0 °F /  -1.1 °C 30.0in /  1015.8hPa SW 2mph /  3.2km/h 6mph /  9.7km/h 41% 0.000in /  0mm 0.00 W/m2
01:09 53.0 °F /  11.7 °C 32.0 °F /  0 °C 30.0in /  1015.8hPa SW 4mph /  6.4km/h 2mph /  3.2km/h 44% 0.000in /  0mm 0.00 W/m2
01:14 53.0 °F /  11.7 °C 35.0 °F /  1.7 °C 30.0in /  1015.8hPa SW 4mph /  6.4km/h 3mph /  4.8km/h 50% 0.000in /  0mm 0.00 W/m2
01:19 53.0 °F /  11.7 °C 34.0 °F /  1.1 °C 30.0in /  1015.8hPa SW 4mph /  6.4km/h 3mph /  4.8km/h 48% 0.000in /  0mm 0.00 W/m2
01:24 53.0 °F /  11.7 °C 31.0 °F /  -0.6 °C 30.0in /  1015.8hPa SW 2mph /  3.2km/h 3mph /  4.8km/h 43% 0.000in /  0mm 0.00 W/m2
01:29 53.0 °F /  11.7 °C 31.0 °F /  -0.6 °C 30.0in /  1015.8hPa Calm   2mph /  3.2km/h 43% 0.000in /  0mm 0.00 W/m2
01:34 53.0 °F /  11.7 °C 32.0 °F /  0 °C 30.0in /  1015.8hPa Calm     44% 0.000in /  0mm 0.00 W/m2
01:39 53.0 °F /  11.7 °C 34.0 °F /  1.1 °C 30.0in /  1015.8hPa SW 4mph /  6.4km/h 1mph /  1.6km/h 49% 0.000in /  0mm 0.00 W/m2
01:44 53.0 °F /  11.7 °C 33.0 °F /  0.6 °C 30.0in /  1015.8hPa SSW 7mph /  11.3km/h 4mph /  6.4km/h 47% 0.000in /  0mm 0.00 W/m2
01:49 53.0 °F /  11.7 °C 32.0 °F /  0 °C 30.0in /  1015.8hPa SSW 4mph /  6.4km/h 7mph /  11.3km/h 44% 0.000in /  0mm 0.00 W/m2
01:54 53.0 °F /  11.7 °C 32.0 °F /  0 °C 30.0in /  1015.8hPa SSW 11mph /  17.7km/h 9mph /  14.5km/h 44% 0.000in /  0mm 0.00 W/m2
01:59 54.0 °F /  12.2 °C 32.0 °F /  0 °C 30.0in /  1015.8hPa South 10mph /  16.1km/h 10mph /  16.1km/h 44% 0.000in /  0mm 0.00 W/m2
02:04 54.0 °F /  12.2 °C 32.0 °F /  0 °C 30.0in /  1015.8hPa SW 18mph /  29km/h 9mph /  14.5km/h 44% 0.000in /  0mm 0.00 W/m2
02:09 54.0 °F /  12.2 °C 33.0 °F /  0.6 °C 30.0in /  1015.8hPa WSW 9mph /  14.5km/h 17mph /  27.4km/h 44% 0.000in /  0mm 0.00 W/m2
02:14 54.0 °F /  12.2 °C 33.0 °F /  0.6 °C 30.0in /  1015.8hPa WSW 9mph /  14.5km/h 9mph /  14.5km/h 44% 0.000in /  0mm 0.00 W/m2
02:19 55.0 °F /  12.8 °C 33.0 °F /  0.6 °C 30.0in /  1015.8hPa West 6mph /  9.7km/h 9mph /  14.5km/h 43% 0.000in /  0mm 0.00 W/m2
02:24 55.0 °F /  12.8 °C 33.0 °F /  0.6 °C 30.0in /  1015.8hPa WSW 11mph /  17.7km/h 6mph /  9.7km/h 44% 0.000in /  0mm 0.00 W/m2
02:29 55.0 °F /  12.8 °C 33.0 °F /  0.6 °C 30.0in /  1015.8hPa SW 7mph /  11.3km/h 10mph /  16.1km/h 44% 0.000in /  0mm 0.00 W/m2
02:34 55.0 °F /  12.8 °C 33.0 °F /  0.6 °C 30.0in /  1015.8hPa WSW 13mph /  20.9km/h 7mph /  11.3km/h 44% 0.000in /  0mm 0.00 W/m2
02:39 55.0 °F /  12.8 °C 34.0 °F /  1.1 °C 30.0in /  1015.8hPa WSW 20mph /  32.2km/h 14mph /  22.5km/h 44% 0.000in /  0mm 0.00 W/m2
02:44 55.0 °F /  12.8 °C 34.0 °F /  1.1 °C 30.0in /  1015.8hPa West 20mph /  32.2km/h 20mph /  32.2km/h 45% 0.000in /  0mm 0.00 W/m2
02:49 55.0 °F /  12.8 °C 35.0 °F /  1.7 °C 30.0in /  1015.8hPa SSW 21mph /  33.8km/h 20mph /  32.2km/h 47% 0.000in /  0mm 0.00 W/m2
02:54 55.0 °F /  12.8 °C 36.0 °F /  2.2 °C 30.0in /  1015.8hPa West 21mph /  33.8km/h 21mph /  33.8km/h 48% 0.000in /  0mm 0.00 W/m2
02:59 55.0 °F /  12.8 °C 36.0 °F /  2.2 °C 30.0in /  1015.8hPa WNW 20mph /  32.2km/h 21mph /  33.8km/h 49% 0.000in /  0mm 0.00 W/m2
03:04 55.0 °F /  12.8 °C 36.0 °F /  2.2 °C 30.0in /  1015.8hPa WSW 13mph /  20.9km/h 16mph /  25.7km/h 49% 0.000in /  0mm 0.00 W/m2
03:09 55.0 °F /  12.8 °C 37.0 °F /  2.8 °C 30.0in /  1015.8hPa North 21mph /  33.8km/h 16mph /  25.7km/h 50% 0.000in /  0mm 0.00 W/m2
03:14 55.0 °F /  12.8 °C 37.0 °F /  2.8 °C 30.0in /  1015.8hPa West 11mph /  17.7km/h 21mph /  33.8km/h 50% 0.000in /  0mm 0.00 W/m2
03:19 55.0 °F /  12.8 °C 37.0 °F /  2.8 °C 30.0in /  1015.8hPa WNW 7mph /  11.3km/h 10mph /  16.1km/h 51% 0.000in /  0mm 0.00 W/m2
03:24 55.0 °F /  12.8 °C 38.0 °F /  3.3 °C 30.0in /  1015.8hPa West 16mph /  25.7km/h 8mph /  12.9km/h 54% 0.000in /  0mm 0.00 W/m2
03:29 55.0 °F /  12.8 °C 39.0 °F /  3.9 °C 30.0in /  1015.8hPa West 32mph /  51.5km/h 16mph /  25.7km/h 56% 0.000in /  0mm 0.00 W/m2
03:34 54.0 °F /  12.2 °C 39.0 °F /  3.9 °C 30.0in /  1015.8hPa SW 31mph /  49.9km/h 31mph /  49.9km/h 57% 0.000in /  0mm 0.00 W/m2
03:38 54.0 °F /  12.2 °C 39.0 °F /  3.9 °C 30.0in /  1015.8hPa WSW 18mph /  29km/h 26mph /  41.8km/h 58% 0.000in /  0mm 0.00 W/m2
03:44 53.0 °F /  11.7 °C 39.0 °F /  3.9 °C 30.0in /  1015.8hPa SSW 10mph /  16.1km/h 17mph /  27.4km/h 59% 0.000in /  0mm 0.00 W/m2
03:49 53.0 °F /  11.7 °C 39.0 °F /  3.9 °C 29.9in /  1012.4hPa SW 11mph /  17.7km/h 9mph /  14.5km/h 60% 0.000in /  0mm 0.00 W/m2
03:54 53.0 °F /  11.7 °C 40.0 °F /  4.4 °C 29.9in /  1012.4hPa SSE 18mph /  29km/h 10mph /  16.1km/h 62% 0.000in /  0mm 0.00 W/m2
03:59 52.0 °F /  11.1 °C 40.0 °F /  4.4 °C 29.9in /  1012.4hPa SSW 6mph /  9.7km/h 17mph /  27.4km/h 63% 0.000in /  0mm 0.00 W/m2
04:04 52.0 °F /  11.1 °C 40.0 °F /  4.4 °C 29.9in /  1012.4hPa SSW 11mph /  17.7km/h 10mph /  16.1km/h 63% 0.000in /  0mm 0.00 W/m2
04:09 52.0 °F /  11.1 °C 40.0 °F /  4.4 °C 29.9in /  1012.4hPa South 13mph /  20.9km/h 10mph /  16.1km/h 64% 0.000in /  0mm 0.00 W/m2
04:14 52.0 °F /  11.1 °C 40.0 °F /  4.4 °C 29.9in /  1012.4hPa SW 11mph /  17.7km/h 13mph /  20.9km/h 64% 0.010in /  0.25mm 0.00 W/m2
04:19 51.0 °F /  10.6 °C 40.0 °F /  4.4 °C 29.9in /  1012.4hPa SSW 11mph /  17.7km/h 10mph /  16.1km/h 65% 0.010in /  0.25mm 0.00 W/m2
04:24 51.0 °F /  10.6 °C 41.0 °F /  5 °C 29.9in /  1012.4hPa SSW 16mph /  25.7km/h 10mph /  16.1km/h 68% 0.010in /  0.25mm 0.00 W/m2
04:29 51.0 °F /  10.6 °C 41.0 °F /  5 °C 29.9in /  1012.4hPa SSW 9mph /  14.5km/h 16mph /  25.7km/h 69% 0.010in /  0.25mm 0.00 W/m2
04:34 51.0 °F /  10.6 °C 41.0 °F /  5 °C 29.9in /  1012.4hPa SSW 18mph /  29km/h 7mph /  11.3km/h 69% 0.010in /  0.25mm 0.00 W/m2
04:39 50.0 °F /  10 °C 41.0 °F /  5 °C 29.9in /  1012.4hPa SW 13mph /  20.9km/h 17mph /  27.4km/h 70% 0.010in /  0.25mm 0.00 W/m2
04:44 50.0 °F /  10 °C 41.0 °F /  5 °C 29.9in /  1012.4hPa SSW 9mph /  14.5km/h 13mph /  20.9km/h 70% 0.010in /  0.25mm 0.00 W/m2
04:49 50.0 °F /  10 °C 40.0 °F /  4.4 °C 29.9in /  1012.4hPa SSW 7mph /  11.3km/h 9mph /  14.5km/h 70% 0.010in /  0.25mm 0.00 W/m2
04:54 50.0 °F /  10 °C 41.0 °F /  5 °C 29.9in /  1012.4hPa SSE 12mph /  19.3km/h 8mph /  12.9km/h 71% 0.010in /  0.25mm 0.00 W/m2
04:59 50.0 °F /  10 °C 41.0 °F /  5 °C 29.9in /  1012.4hPa WSW 13mph /  20.9km/h 13mph /  20.9km/h 71% 0.010in /  0.25mm 0.00 W/m2
05:04 49.0 °F /  9.4 °C 40.0 °F /  4.4 °C 29.9in /  1012.4hPa South 11mph /  17.7km/h 13mph /  20.9km/h 71% 0.010in /  0.25mm 0.00 W/m2
05:09 49.0 °F /  9.4 °C 40.0 °F /  4.4 °C 29.9in /  1012.4hPa SW 10mph /  16.1km/h 10mph /  16.1km/h 71% 0.010in /  0.25mm 0.00 W/m2
05:14 49.0 °F /  9.4 °C 40.0 °F /  4.4 °C 29.9in /  1012.4hPa SW 13mph /  20.9km/h 9mph /  14.5km/h 71% 0.010in /  0.25mm 0.00 W/m2
05:19 49.0 °F /  9.4 °C 40.0 °F /  4.4 °C 29.9in /  1012.4hPa WSW 7mph /  11.3km/h 13mph /  20.9km/h 71% 0.000in /  0mm 0.00 W/m2
05:24 49.0 °F /  9.4 °C 41.0 °F /  5 °C 29.9in /  1012.4hPa SW 7mph /  11.3km/h 7mph /  11.3km/h 73% 0.010in /  0.25mm 0.00 W/m2
05:29 49.0 °F /  9.4 °C 41.0 °F /  5 °C 29.9in /  1012.4hPa SSW 16mph /  25.7km/h 7mph /  11.3km/h 74% 0.010in /  0.25mm 0.00 W/m2
05:34 49.0 °F /  9.4 °C 41.0 °F /  5 °C 29.9in /  1012.4hPa SW 6mph /  9.7km/h 16mph /  25.7km/h 75% 0.010in /  0.25mm 0.00 W/m2
05:39 49.0 °F /  9.4 °C 41.0 °F /  5 °C 29.9in /  1012.4hPa WSW 6mph /  9.7km/h 6mph /  9.7km/h 76% 0.010in /  0.25mm 0.00 W/m2
05:44 49.0 °F /  9.4 °C 41.0 °F /  5 °C 29.9in /  1012.4hPa SSW 7mph /  11.3km/h 6mph /  9.7km/h 76% 0.020in /  0.51mm 0.00 W/m2
05:49 48.0 °F /  8.9 °C 41.0 °F /  5 °C 29.9in /  1012.4hPa SSW 9mph /  14.5km/h 7mph /  11.3km/h 77% 0.020in /  0.51mm 0.00 W/m2
05:54 48.0 °F /  8.9 °C 42.0 °F /  5.6 °C 29.9in /  1012.4hPa SW 9mph /  14.5km/h 9mph /  14.5km/h 78% 0.020in /  0.51mm 0.00 W/m2
05:59 48.0 °F /  8.9 °C 42.0 °F /  5.6 °C 29.9in /  1012.4hPa SSW 6mph /  9.7km/h 7mph /  11.3km/h 79% 0.020in /  0.51mm 0.00 W/m2
06:04 48.0 °F /  8.9 °C 42.0 °F /  5.6 °C 29.9in /  1012.4hPa SW 4mph /  6.4km/h 6mph /  9.7km/h 79% 0.030in /  0.76mm 0.00 W/m2
06:09 48.0 °F /  8.9 °C 42.0 °F /  5.6 °C 29.9in /  1012.4hPa SW 4mph /  6.4km/h 3mph /  4.8km/h 79% 0.030in /  0.76mm 0.00 W/m2
06:14 48.0 °F /  8.9 °C 42.0 °F /  5.6 °C 29.9in /  1012.4hPa SW 2mph /  3.2km/h 3mph /  4.8km/h 80% 0.030in /  0.76mm 0.00 W/m2
06:19 48.0 °F /  8.9 °C 42.0 °F /  5.6 °C 29.9in /  1012.4hPa Calm     80% 0.030in /  0.76mm 0.00 W/m2
06:24 47.0 °F /  8.3 °C 42.0 °F /  5.6 °C 29.9in /  1012.4hPa SW 2mph /  3.2km/h   81% 0.030in /  0.76mm 0.00 W/m2
06:29 47.0 °F /  8.3 °C 42.0 °F /  5.6 °C 29.9in /  1012.4hPa SSW 4mph /  6.4km/h 2mph /  3.2km/h 81% 0.020in /  0.51mm 0.00 W/m2
06:34 47.0 °F /  8.3 °C 42.0 °F /  5.6 °C 29.9in /  1012.4hPa SW 6mph /  9.7km/h 3mph /  4.8km/h 81% 0.020in /  0.51mm 0.00 W/m2
06:39 47.0 °F /  8.3 °C 42.0 °F /  5.6 °C 29.9in /  1012.4hPa SW 6mph /  9.7km/h 6mph /  9.7km/h 82% 0.020in /  0.51mm 0.00 W/m2
06:44 47.0 °F /  8.3 °C 42.0 °F /  5.6 °C 29.9in /  1012.4hPa SSW 6mph /  9.7km/h 6mph /  9.7km/h 82% 0.020in /  0.51mm 0.00 W/m2
06:49 47.0 °F /  8.3 °C 42.0 °F /  5.6 °C 29.9in /  1012.4hPa SW 6mph /  9.7km/h 6mph /  9.7km/h 83% 0.010in /  0.25mm 0.00 W/m2
06:54 47.0 °F /  8.3 °C 42.0 °F /  5.6 °C 29.9in /  1012.4hPa SW 7mph /  11.3km/h 6mph /  9.7km/h 83% 0.020in /  0.51mm 0.00 W/m2
06:59 47.0 °F /  8.3 °C 42.0 °F /  5.6 °C 29.9in /  1012.4hPa Calm   7mph /  11.3km/h 83% 0.020in /  0.51mm 0.00 W/m2
07:03 47.0 °F /  8.3 °C 42.0 °F /  5.6 °C 29.9in /  1012.4hPa SW 4mph /  6.4km/h 2mph /  3.2km/h 83% 0.020in /  0.51mm 0.00 W/m2
07:09 47.0 °F /  8.3 °C 42.0 °F /  5.6 °C 29.9in /  1012.4hPa West 2mph /  3.2km/h 3mph /  4.8km/h 83% 0.010in /  0.25mm 0.00 W/m2
07:14 47.0 °F /  8.3 °C 42.0 °F /  5.6 °C 29.9in /  1012.4hPa West 4mph /  6.4km/h 2mph /  3.2km/h 83% 0.010in /  0.25mm 0.00 W/m2
07:19 47.0 °F /  8.3 °C 42.0 °F /  5.6 °C 29.9in /  1012.4hPa Calm   3mph /  4.8km/h 84% 0.020in /  0.51mm 0.00 W/m2
07:24 47.0 °F /  8.3 °C 42.0 °F /  5.6 °C 29.9in /  1012.4hPa Calm     84% 0.020in /  0.51mm 0.00 W/m2
07:29 47.0 °F /  8.3 °C 42.0 °F /  5.6 °C 29.9in /  1012.4hPa Calm     84% 0.020in /  0.51mm 0.00 W/m2
07:34 47.0 °F /  8.3 °C 42.0 °F /  5.6 °C 29.9in /  1012.4hPa Calm     85% 0.030in /  0.76mm 0.00 W/m2
07:39 47.0 °F /  8.3 °C 42.0 °F /  5.6 °C 29.9in /  1012.4hPa Calm     85% 0.030in /  0.76mm 9.00 W/m2
07:44 47.0 °F /  8.3 °C 42.0 °F /  5.6 °C 29.9in /  1012.4hPa Calm     85% 0.040in /  1.02mm 11.00 W/m2
07:49 47.0 °F /  8.3 °C 43.0 °F /  6.1 °C 29.9in /  1012.4hPa West 2mph /  3.2km/h 1mph /  1.6km/h 86% 0.050in /  1.27mm 7.00 W/m2
07:54 47.0 °F /  8.3 °C 43.0 °F /  6.1 °C 29.9in /  1012.4hPa WNW 6mph /  9.7km/h 6mph /  9.7km/h 86% 0.050in /  1.27mm 7.00 W/m2
07:59 47.0 °F /  8.3 °C 43.0 °F /  6.1 °C 29.9in /  1012.4hPa Calm   3mph /  4.8km/h 87% 0.060in /  1.52mm 9.00 W/m2
08:04 47.0 °F /  8.3 °C 43.0 °F /  6.1 °C 29.9in /  1012.4hPa WNW 2mph /  3.2km/h 2mph /  3.2km/h 87% 0.070in /  1.78mm 9.00 W/m2
08:09 46.0 °F /  7.8 °C 43.0 °F /  6.1 °C 29.9in /  1012.4hPa WNW 2mph /  3.2km/h 2mph /  3.2km/h 87% 0.080in /  2.03mm 12.00 W/m2
08:14 46.0 °F /  7.8 °C 43.0 °F /  6.1 °C 29.9in /  1012.4hPa WNW 2mph /  3.2km/h 2mph /  3.2km/h 87% 0.100in /  2.54mm 11.00 W/m2
08:19 46.0 °F /  7.8 °C 43.0 °F /  6.1 °C 29.9in /  1012.4hPa Calm   2mph /  3.2km/h 88% 0.100in /  2.54mm 11.00 W/m2
08:24 46.0 °F /  7.8 °C 43.0 °F /  6.1 °C 29.9in /  1012.4hPa Calm     88% 0.110in /  2.79mm 14.00 W/m2
08:29 46.0 °F /  7.8 °C 43.0 °F /  6.1 °C 29.9in /  1012.4hPa WNW 2mph /  3.2km/h 1mph /  1.6km/h 88% 0.130in /  3.3mm 12.00 W/m2
08:34 46.0 °F /  7.8 °C 43.0 °F /  6.1 °C 29.9in /  1012.4hPa NW 7mph /  11.3km/h 3mph /  4.8km/h 88% 0.130in /  3.3mm 12.00 W/m2
08:39 46.0 °F /  7.8 °C 43.0 °F /  6.1 °C 29.9in /  1012.4hPa NW 9mph /  14.5km/h 7mph /  11.3km/h 89% 0.150in /  3.81mm 19.00 W/m2
08:44 46.0 °F /  7.8 °C 43.0 °F /  6.1 °C 29.9in /  1012.4hPa NNW 6mph /  9.7km/h 9mph /  14.5km/h 89% 0.150in /  3.81mm 21.00 W/m2
08:49 46.0 °F /  7.8 °C 43.0 °F /  6.1 °C 29.9in /  1012.4hPa NNW 4mph /  6.4km/h 6mph /  9.7km/h 89% 0.150in /  3.81mm 23.00 W/m2
08:54 46.0 °F /  7.8 °C 43.0 °F /  6.1 °C 29.9in /  1012.4hPa NNW 2mph /  3.2km/h 3mph /  4.8km/h 90% 0.150in /  3.81mm 21.00 W/m2
08:59 46.0 °F /  7.8 °C 43.0 °F /  6.1 °C 29.9in /  1012.4hPa WNW 7mph /  11.3km/h 3mph /  4.8km/h 90% 0.160in /  4.06mm 21.00 W/m2
09:04 46.0 °F /  7.8 °C 43.0 °F /  6.1 °C 29.9in /  1012.4hPa SW 6mph /  9.7km/h 7mph /  11.3km/h 90% 0.160in /  4.06mm 21.00 W/m2
09:09 46.0 °F /  7.8 °C 43.0 °F /  6.1 °C 29.9in /  1012.4hPa SW 6mph /  9.7km/h 6mph /  9.7km/h 90% 0.160in /  4.06mm 26.00 W/m2
09:14 46.0 °F /  7.8 °C 43.0 °F /  6.1 °C 29.9in /  1012.4hPa South 7mph /  11.3km/h 6mph /  9.7km/h 90% 0.160in /  4.06mm 32.00 W/m2
09:19 46.0 °F /  7.8 °C 43.0 °F /  6.1 °C 29.9in /  1012.4hPa South 9mph /  14.5km/h 7mph /  11.3km/h 90% 0.150in /  3.81mm 28.00 W/m2
09:24 46.0 °F /  7.8 °C 43.0 °F /  6.1 °C 29.9in /  1012.4hPa SW 11mph /  17.7km/h 9mph /  14.5km/h 91% 0.140in /  3.56mm 33.00 W/m2
09:29 46.0 °F /  7.8 °C 43.0 °F /  6.1 °C 29.9in /  1012.4hPa Calm   10mph /  16.1km/h 91% 0.140in /  3.56mm 30.00 W/m2
09:34 46.0 °F /  7.8 °C 43.0 °F /  6.1 °C 29.9in /  1012.4hPa SW 4mph /  6.4km/h 1mph /  1.6km/h 91% 0.130in /  3.3mm 28.00 W/m2
09:38 46.0 °F /  7.8 °C 43.0 °F /  6.1 °C 29.9in /  1012.4hPa Calm   3mph /  4.8km/h 91% 0.130in /  3.3mm 18.00 W/m2
09:44 46.0 °F /  7.8 °C 43.0 °F /  6.1 °C 29.9in /  1012.4hPa Calm     91% 0.130in /  3.3mm 18.00 W/m2
09:49 46.0 °F /  7.8 °C 43.0 °F /  6.1 °C 29.9in /  1012.4hPa Calm     91% 0.130in /  3.3mm 21.00 W/m2
09:54 46.0 °F /  7.8 °C 43.0 °F /  6.1 °C 29.9in /  1012.4hPa SW 6mph /  9.7km/h 2mph /  3.2km/h 91% 0.130in /  3.3mm 21.00 W/m2
09:59 46.0 °F /  7.8 °C 43.0 °F /  6.1 °C 29.9in /  1012.4hPa SW 4mph /  6.4km/h 6mph /  9.7km/h 91% 0.130in /  3.3mm 21.00 W/m2
10:04 46.0 °F /  7.8 °C 43.0 °F /  6.1 °C 29.9in /  1012.4hPa SW 2mph /  3.2km/h 3mph /  4.8km/h 91% 0.120in /  3.05mm 51.00 W/m2
10:09 46.0 °F /  7.8 °C 43.0 °F /  6.1 °C 29.9in /  1012.4hPa SSW 9mph /  14.5km/h 5mph /  8km/h 91% 0.120in /  3.05mm 60.00 W/m2
10:14 46.0 °F /  7.8 °C 43.0 °F /  6.1 °C 29.9in /  1012.4hPa SSW 4mph /  6.4km/h 9mph /  14.5km/h 91% 0.110in /  2.79mm 76.00 W/m2
10:19 46.0 °F /  7.8 °C 44.0 °F /  6.7 °C 29.9in /  1012.4hPa SW 9mph /  14.5km/h 4mph /  6.4km/h 92% 0.100in /  2.54mm 72.00 W/m2
10:24 46.0 °F /  7.8 °C 44.0 °F /  6.7 °C 29.9in /  1012.4hPa SW 4mph /  6.4km/h 9mph /  14.5km/h 92% 0.100in /  2.54mm 104.00 W/m2
10:29 46.0 °F /  7.8 °C 44.0 °F /  6.7 °C 29.9in /  1012.4hPa SW 4mph /  6.4km/h 3mph /  4.8km/h 92% 0.090in /  2.29mm 98.00 W/m2
10:34 46.0 °F /  7.8 °C 44.0 °F /  6.7 °C 29.9in /  1012.4hPa SW 5mph /  8km/h 3mph /  4.8km/h 92% 0.090in /  2.29mm 111.00 W/m2
10:39 46.0 °F /  7.8 °C 44.0 °F /  6.7 °C 29.9in /  1012.4hPa SW 6mph /  9.7km/h 6mph /  9.7km/h 92% 0.080in /  2.03mm 98.00 W/m2
10:44 46.0 °F /  7.8 °C 44.0 °F /  6.7 °C 29.9in /  1012.4hPa SW 6mph /  9.7km/h 6mph /  9.7km/h 92% 0.070in /  1.78mm 107.00 W/m2
10:48 46.0 °F /  7.8 °C 44.0 °F /  6.7 °C 29.9in /  1012.4hPa WSW 6mph /  9.7km/h 3mph /  4.8km/h 92% 0.050in /  1.27mm 107.00 W/m2
10:54 46.0 °F /  7.8 °C 44.0 °F /  6.7 °C 29.9in /  1012.4hPa WNW 9mph /  14.5km/h 6mph /  9.7km/h 92% 0.050in /  1.27mm 123.00 W/m2
10:59 47.0 °F /  8.3 °C 44.0 °F /  6.7 °C 29.9in /  1012.4hPa WSW 9mph /  14.5km/h 9mph /  14.5km/h 92% 0.040in /  1.02mm 105.00 W/m2
11:04 47.0 °F /  8.3 °C 44.0 °F /  6.7 °C 29.9in /  1012.4hPa SW 9mph /  14.5km/h 9mph /  14.5km/h 92% 0.030in /  0.76mm 107.00 W/m2
11:09 47.0 °F /  8.3 °C 44.0 °F /  6.7 °C 29.9in /  1012.4hPa West 13mph /  20.9km/h 10mph /  16.1km/h 92% 0.020in /  0.51mm 81.00 W/m2
11:14 47.0 °F /  8.3 °C 44.0 °F /  6.7 °C 29.9in /  1012.4hPa SW 9mph /  14.5km/h 13mph /  20.9km/h 92% 0.020in /  0.51mm 97.00 W/m2
11:19 47.0 °F /  8.3 °C 44.0 °F /  6.7 °C 29.9in /  1012.4hPa WSW 9mph /  14.5km/h 9mph /  14.5km/h 92% 0.020in /  0.51mm 105.00 W/m2
11:24 47.0 °F /  8.3 °C 44.0 °F /  6.7 °C 29.9in /  1012.4hPa WSW 9mph /  14.5km/h 9mph /  14.5km/h 92% 0.020in /  0.51mm 111.00 W/m2
11:29 47.0 °F /  8.3 °C 44.0 °F /  6.7 °C 29.9in /  1012.4hPa WSW 7mph /  11.3km/h 9mph /  14.5km/h 92% 0.020in /  0.51mm 142.00 W/m2
11:34 47.0 °F /  8.3 °C 44.0 °F /  6.7 °C 29.9in /  1012.4hPa WSW 16mph /  25.7km/h 7mph /  11.3km/h 92% 0.020in /  0.51mm 127.00 W/m2
11:39 47.0 °F /  8.3 °C 44.0 °F /  6.7 °C 29.9in /  1012.4hPa WSW 11mph /  17.7km/h 16mph /  25.7km/h 92% 0.010in /  0.25mm 121.00 W/m2
11:44 47.0 °F /  8.3 °C 44.0 °F /  6.7 °C 29.9in /  1012.4hPa WSW 11mph /  17.7km/h 10mph /  16.1km/h 92% 0.010in /  0.25mm 118.00 W/m2
11:49 47.0 °F /  8.3 °C 44.0 °F /  6.7 °C 29.9in /  1012.4hPa SW 7mph /  11.3km/h 10mph /  16.1km/h 92% 0.010in /  0.25mm 105.00 W/m2
11:54 47.0 °F /  8.3 °C 44.0 °F /  6.7 °C 29.9in /  1012.4hPa West 7mph /  11.3km/h 7mph /  11.3km/h 92% 0.000in /  0mm 98.00 W/m2
11:59 47.0 °F /  8.3 °C 45.0 °F /  7.2 °C 29.9in /  1012.4hPa SW 7mph /  11.3km/h 7mph /  11.3km/h 92% 0.000in /  0mm 93.00 W/m2
12:04 47.0 °F /  8.3 °C 45.0 °F /  7.2 °C 29.9in /  1012.4hPa WSW 9mph /  14.5km/h 7mph /  11.3km/h 92% 0.000in /  0mm 81.00 W/m2
12:09 47.0 °F /  8.3 °C 45.0 °F /  7.2 °C 29.9in /  1012.4hPa SSW 6mph /  9.7km/h 9mph /  14.5km/h 92% 0.000in /  0mm 104.00 W/m2
12:14 47.0 °F /  8.3 °C 45.0 °F /  7.2 °C 29.9in /  1012.4hPa SW 6mph /  9.7km/h 6mph /  9.7km/h 92% 0.000in /  0mm 178.00 W/m2
12:19 47.0 °F /  8.3 °C 45.0 °F /  7.2 °C 29.9in /  1012.4hPa SW 4mph /  6.4km/h 6mph /  9.7km/h 92% 0.000in /  0mm 183.00 W/m2
12:24 47.0 °F /  8.3 °C 45.0 °F /  7.2 °C 29.9in /  1012.4hPa SW 16mph /  25.7km/h 9mph /  14.5km/h 92% 0.000in /  0mm 142.00 W/m2
12:29 47.0 °F /  8.3 °C 45.0 °F /  7.2 °C 29.9in /  1012.4hPa SW 9mph /  14.5km/h 16mph /  25.7km/h 92% 0.000in /  0mm 148.00 W/m2
12:33 47.0 °F /  8.3 °C 45.0 °F /  7.2 °C 29.9in /  1012.4hPa WSW 16mph /  25.7km/h 9mph /  14.5km/h 92% 0.010in /  0.25mm 130.00 W/m2
12:39 47.0 °F /  8.3 °C 45.0 °F /  7.2 °C 29.9in /  1012.4hPa SW 14mph /  22.5km/h 16mph /  25.7km/h 92% 0.010in /  0.25mm 139.00 W/m2
12:44 47.0 °F /  8.3 °C 45.0 °F /  7.2 °C 29.9in /  1012.4hPa SW 14mph /  22.5km/h 14mph /  22.5km/h 92% 0.010in /  0.25mm 139.00 W/m2
12:49 47.0 °F /  8.3 °C 45.0 °F /  7.2 °C 29.9in /  1012.4hPa SW 9mph /  14.5km/h 9mph /  14.5km/h 92% 0.010in /  0.25mm 141.00 W/m2
12:54 47.0 °F /  8.3 °C 45.0 °F /  7.2 °C 29.9in /  1012.4hPa SW 7mph /  11.3km/h 9mph /  14.5km/h 92% 0.010in /  0.25mm 127.00 W/m2
12:59 48.0 °F /  8.9 °C 45.0 °F /  7.2 °C 29.9in /  1012.4hPa SSW 9mph /  14.5km/h 9mph /  14.5km/h 92% 0.010in /  0.25mm 118.00 W/m2
13:04 48.0 °F /  8.9 °C 45.0 °F /  7.2 °C 29.9in /  1012.4hPa SW 5mph /  8km/h 9mph /  14.5km/h 92% 0.010in /  0.25mm 137.00 W/m2
13:09 48.0 °F /  8.9 °C 46.0 °F /  7.8 °C 29.9in /  1012.4hPa West 9mph /  14.5km/h 9mph /  14.5km/h 92% 0.010in /  0.25mm 200.00 W/m2
13:14 48.0 °F /  8.9 °C 46.0 °F /  7.8 °C 29.9in /  1012.4hPa SW 9mph /  14.5km/h 6mph /  9.7km/h 92% 0.010in /  0.25mm 309.00 W/m2
13:19 48.0 °F /  8.9 °C 46.0 °F /  7.8 °C 29.9in /  1012.4hPa West 9mph /  14.5km/h 9mph /  14.5km/h 92% 0.010in /  0.25mm 373.00 W/m2
13:24 48.0 °F /  8.9 °C 46.0 °F /  7.8 °C 29.9in /  1012.4hPa SW 11mph /  17.7km/h 9mph /  14.5km/h 93% 0.010in /  0.25mm 408.00 W/m2
13:29 49.0 °F /  9.4 °C 47.0 °F /  8.3 °C 29.9in /  1012.4hPa SW 9mph /  14.5km/h 10mph /  16.1km/h 93% 0.010in /  0.25mm 334.00 W/m2
13:34 49.0 °F /  9.4 °C 47.0 °F /  8.3 °C 29.9in /  1012.4hPa WSW 11mph /  17.7km/h 10mph /  16.1km/h 93% 0.010in /  0.25mm 202.00 W/m2
13:39 49.0 °F /  9.4 °C 47.0 °F /  8.3 °C 29.9in /  1012.4hPa West 7mph /  11.3km/h 6mph /  9.7km/h 93% 0.000in /  0mm 174.00 W/m2
13:44 49.0 °F /  9.4 °C 47.0 °F /  8.3 °C 29.9in /  1012.4hPa WSW 7mph /  11.3km/h 7mph /  11.3km/h 93% 0.000in /  0mm 107.00 W/m2
13:49 49.0 °F /  9.4 °C 47.0 °F /  8.3 °C 29.9in /  1012.4hPa SW 7mph /  11.3km/h 7mph /  11.3km/h 92% 0.000in /  0mm 91.00 W/m2
13:54 49.0 °F /  9.4 °C 46.0 °F /  7.8 °C 29.9in /  1012.4hPa West 6mph /  9.7km/h 7mph /  11.3km/h 92% 0.010in /  0.25mm 128.00 W/m2
13:59 49.0 °F /  9.4 °C 46.0 °F /  7.8 °C 29.9in /  1012.4hPa SW 13mph /  20.9km/h 6mph /  9.7km/h 92% 0.010in /  0.25mm 255.00 W/m2
14:04 49.0 °F /  9.4 °C 46.0 °F /  7.8 °C 29.9in /  1012.4hPa SSW 9mph /  14.5km/h 13mph /  20.9km/h 92% 0.010in /  0.25mm 267.00 W/m2
14:09 49.0 °F /  9.4 °C 46.0 °F /  7.8 °C 29.9in /  1012.4hPa SW 16mph /  25.7km/h 9mph /  14.5km/h 92% 0.020in /  0.51mm 188.00 W/m2
14:14 49.0 °F /  9.4 °C 46.0 °F /  7.8 °C 29.9in /  1012.4hPa WSW 16mph /  25.7km/h 16mph /  25.7km/h 92% 0.020in /  0.51mm 169.00 W/m2
14:19 49.0 °F /  9.4 °C 46.0 °F /  7.8 °C 29.9in /  1012.4hPa SW 1mph /  1.6km/h 10mph /  16.1km/h 92% 0.030in /  0.76mm 181.00 W/m2
14:24 49.0 °F /  9.4 °C 47.0 °F /  8.3 °C 29.9in /  1012.4hPa WSW 7mph /  11.3km/h 5mph /  8km/h 93% 0.040in /  1.02mm 179.00 W/m2
14:29 49.0 °F /  9.4 °C 47.0 °F /  8.3 °C 29.9in /  1012.4hPa West 11mph /  17.7km/h 7mph /  11.3km/h 93% 0.040in /  1.02mm 202.00 W/m2
14:34 49.0 °F /  9.4 °C 47.0 °F /  8.3 °C 29.9in /  1012.4hPa SSW 18mph /  29km/h 17mph /  27.4km/h 93% 0.050in /  1.27mm 155.00 W/m2
14:39 49.0 °F /  9.4 °C 47.0 °F /  8.3 °C 29.9in /  1012.4hPa SW 4mph /  6.4km/h 7mph /  11.3km/h 93% 0.050in /  1.27mm 179.00 W/m2
14:44 49.0 °F /  9.4 °C 47.0 °F /  8.3 °C 29.9in /  1012.4hPa WNW 11mph /  17.7km/h 7mph /  11.3km/h 93% 0.050in /  1.27mm 190.00 W/m2
14:49 49.0 °F /  9.4 °C 47.0 °F /  8.3 °C 29.9in /  1012.4hPa NW 11mph /  17.7km/h 10mph /  16.1km/h 93% 0.060in /  1.52mm 148.00 W/m2
14:54 49.0 °F /  9.4 °C 47.0 °F /  8.3 °C 29.9in /  1012.4hPa NE 7mph /  11.3km/h 10mph /  16.1km/h 93% 0.050in /  1.27mm 148.00 W/m2
14:59 49.0 °F /  9.4 °C 47.0 °F /  8.3 °C 29.9in /  1012.4hPa NNW 7mph /  11.3km/h 5mph /  8km/h 93% 0.060in /  1.52mm 158.00 W/m2
15:04 49.0 °F /  9.4 °C 47.0 °F /  8.3 °C 29.9in /  1012.4hPa West 13mph /  20.9km/h 7mph /  11.3km/h 93% 0.060in /  1.52mm 142.00 W/m2
15:09 49.0 °F /  9.4 °C 47.0 °F /  8.3 °C 29.9in /  1012.4hPa WNW 7mph /  11.3km/h 13mph /  20.9km/h 93% 0.050in /  1.27mm 174.00 W/m2
15:14 49.0 °F /  9.4 °C 47.0 °F /  8.3 °C 29.9in /  1012.4hPa NW 9mph /  14.5km/h 6mph /  9.7km/h 93% 0.050in /  1.27mm 204.00 W/m2
15:19 49.0 °F /  9.4 °C 47.0 °F /  8.3 °C 29.9in /  1012.4hPa WSW 9mph /  14.5km/h 9mph /  14.5km/h 93% 0.060in /  1.52mm 181.00 W/m2
15:24 49.0 °F /  9.4 °C 47.0 °F /  8.3 °C 29.9in /  1012.4hPa West 13mph /  20.9km/h 11mph /  17.7km/h 93% 0.050in /  1.27mm 167.00 W/m2
15:29 49.0 °F /  9.4 °C 47.0 °F /  8.3 °C 29.9in /  1012.4hPa SW 7mph /  11.3km/h 13mph /  20.9km/h 93% 0.040in /  1.02mm 218.00 W/m2
15:34 49.0 °F /  9.4 °C 47.0 °F /  8.3 °C 29.9in /  1012.4hPa SW 7mph /  11.3km/h 6mph /  9.7km/h 93% 0.030in /  0.76mm 139.00 W/m2
15:39 49.0 °F /  9.4 °C 47.0 °F /  8.3 °C 29.9in /  1012.4hPa WNW 9mph /  14.5km/h 7mph /  11.3km/h 93% 0.030in /  0.76mm 134.00 W/m2
15:44 49.0 °F /  9.4 °C 47.0 °F /  8.3 °C 29.9in /  1012.4hPa West 11mph /  17.7km/h 9mph /  14.5km/h 93% 0.030in /  0.76mm 104.00 W/m2
15:49 49.0 °F /  9.4 °C 47.0 °F /  8.3 °C 29.9in /  1012.4hPa WSW 5mph /  8km/h 10mph /  16.1km/h 93% 0.030in /  0.76mm 118.00 W/m2
15:54 49.0 °F /  9.4 °C 47.0 °F /  8.3 °C 29.9in /  1012.4hPa WSW 6mph /  9.7km/h 6mph /  9.7km/h 93% 0.030in /  0.76mm 118.00 W/m2
15:59 49.0 °F /  9.4 °C 47.0 °F /  8.3 °C 29.9in /  1012.4hPa NE 9mph /  14.5km/h 3mph /  4.8km/h 93% 0.030in /  0.76mm 113.00 W/m2
16:04 49.0 °F /  9.4 °C 47.0 °F /  8.3 °C 29.9in /  1012.4hPa NNE 2mph /  3.2km/h 9mph /  14.5km/h 93% 0.030in /  0.76mm 121.00 W/m2
16:09 49.0 °F /  9.4 °C 47.0 °F /  8.3 °C 29.9in /  1012.4hPa NNW 6mph /  9.7km/h 3mph /  4.8km/h 93% 0.030in /  0.76mm 125.00 W/m2
16:14 49.0 °F /  9.4 °C 47.0 °F /  8.3 °C 29.9in /  1012.4hPa West 2mph /  3.2km/h 6mph /  9.7km/h 93% 0.040in /  1.02mm 74.00 W/m2
16:19 49.0 °F /  9.4 °C 47.0 °F /  8.3 °C 29.9in /  1012.4hPa WSW 16mph /  25.7km/h 8mph /  12.9km/h 93% 0.040in /  1.02mm 74.00 W/m2
16:24 49.0 °F /  9.4 °C 47.0 °F /  8.3 °C 29.9in /  1012.4hPa WNW 11mph /  17.7km/h 16mph /  25.7km/h 93% 0.030in /  0.76mm 56.00 W/m2
16:29 49.0 °F /  9.4 °C 47.0 °F /  8.3 °C 29.9in /  1012.4hPa West 11mph /  17.7km/h 10mph /  16.1km/h 93% 0.030in /  0.76mm 63.00 W/m2
16:34 49.0 °F /  9.4 °C 47.0 °F /  8.3 °C 29.9in /  1012.4hPa SSW 9mph /  14.5km/h 10mph /  16.1km/h 93% 0.040in /  1.02mm 60.00 W/m2
16:39 49.0 °F /  9.4 °C 47.0 °F /  8.3 °C 29.9in /  1012.4hPa West 20mph /  32.2km/h 20mph /  32.2km/h 93% 0.050in /  1.27mm 56.00 W/m2
16:44 49.0 °F /  9.4 °C 47.0 °F /  8.3 °C 29.9in /  1012.4hPa WSW 16mph /  25.7km/h 20mph /  32.2km/h 93% 0.050in /  1.27mm 86.00 W/m2
16:49 49.0 °F /  9.4 °C 47.0 °F /  8.3 °C 29.9in /  1012.4hPa WSW 13mph /  20.9km/h 16mph /  25.7km/h 93% 0.060in /  1.52mm 95.00 W/m2
16:54 49.0 °F /  9.4 °C 47.0 °F /  8.3 °C 29.9in /  1012.4hPa West 9mph /  14.5km/h 13mph /  20.9km/h 93% 0.050in /  1.27mm 67.00 W/m2
16:59 48.0 °F /  8.9 °C 47.0 °F /  8.3 °C 29.9in /  1012.4hPa ENE 11mph /  17.7km/h 9mph /  14.5km/h 93% 0.050in /  1.27mm 74.00 W/m2
17:04 48.0 °F /  8.9 °C 47.0 °F /  8.3 °C 29.9in /  1012.4hPa West 25mph /  40.2km/h 10mph /  16.1km/h 93% 0.050in /  1.27mm 102.00 W/m2
17:09 49.0 °F /  9.4 °C 47.0 °F /  8.3 °C 29.9in /  1012.4hPa NW 6mph /  9.7km/h 25mph /  40.2km/h 93% 0.050in /  1.27mm 90.00 W/m2
17:14 49.0 °F /  9.4 °C 47.0 °F /  8.3 °C 29.9in /  1012.4hPa SW 6mph /  9.7km/h 6mph /  9.7km/h 93% 0.050in /  1.27mm 62.00 W/m2
17:19 49.0 °F /  9.4 °C 47.0 °F /  8.3 °C 29.9in /  1012.4hPa SW 2mph /  3.2km/h 3mph /  4.8km/h 93% 0.040in /  1.02mm 67.00 W/m2
17:24 49.0 °F /  9.4 °C 47.0 °F /  8.3 °C 29.9in /  1012.4hPa NW 6mph /  9.7km/h 2mph /  3.2km/h 93% 0.040in /  1.02mm 70.00 W/m2
17:29 49.0 °F /  9.4 °C 47.0 °F /  8.3 °C 29.9in /  1012.4hPa West 4mph /  6.4km/h 6mph /  9.7km/h 93% 0.050in /  1.27mm 72.00 W/m2
17:34 49.0 °F /  9.4 °C 47.0 °F /  8.3 °C 29.9in /  1012.4hPa WSW 6mph /  9.7km/h 3mph /  4.8km/h 93% 0.040in /  1.02mm 56.00 W/m2
17:39 49.0 °F /  9.4 °C 47.0 °F /  8.3 °C 29.9in /  1012.4hPa WSW 4mph /  6.4km/h 6mph /  9.7km/h 93% 0.040in /  1.02mm 60.00 W/m2
17:44 49.0 °F /  9.4 °C 47.0 °F /  8.3 °C 29.9in /  1012.4hPa West 7mph /  11.3km/h 3mph /  4.8km/h 93% 0.030in /  0.76mm 53.00 W/m2
17:49 49.0 °F /  9.4 °C 47.0 °F /  8.3 °C 29.9in /  1012.4hPa SW 9mph /  14.5km/h 7mph /  11.3km/h 93% 0.040in /  1.02mm 51.00 W/m2
17:54 49.0 °F /  9.4 °C 47.0 °F /  8.3 °C 29.9in /  1012.4hPa WNW 6mph /  9.7km/h 9mph /  14.5km/h 93% 0.030in /  0.76mm 37.00 W/m2
17:59 49.0 °F /  9.4 °C 47.0 °F /  8.3 °C 29.9in /  1012.4hPa WSW 2mph /  3.2km/h 6mph /  9.7km/h 93% 0.030in /  0.76mm 35.00 W/m2
18:04 49.0 °F /  9.4 °C 47.0 °F /  8.3 °C 29.9in /  1012.4hPa WSW 2mph /  3.2km/h   93% 0.040in /  1.02mm 42.00 W/m2
18:09 49.0 °F /  9.4 °C 47.0 °F /  8.3 °C 29.9in /  1012.4hPa SSW 9mph /  14.5km/h 4mph /  6.4km/h 93% 0.030in /  0.76mm 46.00 W/m2
18:14 49.0 °F /  9.4 °C 47.0 °F /  8.3 °C 29.9in /  1012.4hPa SSW 4mph /  6.4km/h 9mph /  14.5km/h 93% 0.030in /  0.76mm 54.00 W/m2
18:19 49.0 °F /  9.4 °C 47.0 °F /  8.3 °C 29.9in /  1012.4hPa WSW 11mph /  17.7km/h 4mph /  6.4km/h 93% 0.030in /  0.76mm 53.00 W/m2
18:24 49.0 °F /  9.4 °C 47.0 °F /  8.3 °C 29.9in /  1012.4hPa SSW 6mph /  9.7km/h 10mph /  16.1km/h 93% 0.040in /  1.02mm 39.00 W/m2
18:29 49.0 °F /  9.4 °C 47.0 °F /  8.3 °C 29.9in /  1012.4hPa WSW 4mph /  6.4km/h 6mph /  9.7km/h 94% 0.040in /  1.02mm 28.00 W/m2
18:34 49.0 °F /  9.4 °C 47.0 °F /  8.3 °C 29.9in /  1012.4hPa SW 6mph /  9.7km/h 3mph /  4.8km/h 94% 0.030in /  0.76mm 19.00 W/m2
18:39 49.0 °F /  9.4 °C 47.0 °F /  8.3 °C 29.9in /  1012.4hPa SSW 7mph /  11.3km/h 7mph /  11.3km/h 94% 0.030in /  0.76mm 12.00 W/m2
18:44 49.0 °F /  9.4 °C 47.0 °F /  8.3 °C 29.9in /  1012.4hPa South 7mph /  11.3km/h 3mph /  4.8km/h 94% 0.030in /  0.76mm 11.00 W/m2
18:49 49.0 °F /  9.4 °C 47.0 °F /  8.3 °C 29.9in /  1012.4hPa SSW 4mph /  6.4km/h 7mph /  11.3km/h 94% 0.030in /  0.76mm 9.00 W/m2
18:54 48.0 °F /  8.9 °C 47.0 °F /  8.3 °C 29.9in /  1012.4hPa SW 4mph /  6.4km/h 3mph /  4.8km/h 93% 0.030in /  0.76mm 5.00 W/m2
18:59 48.0 °F /  8.9 °C 47.0 °F /  8.3 °C 29.9in /  1012.4hPa SW 7mph /  11.3km/h 3mph /  4.8km/h 93% 0.030in /  0.76mm 0.00 W/m2
19:04 48.0 °F /  8.9 °C 47.0 °F /  8.3 °C 29.9in /  1012.4hPa SW 2mph /  3.2km/h 7mph /  11.3km/h 93% 0.030in /  0.76mm 0.00 W/m2
19:09 48.0 °F /  8.9 °C 47.0 °F /  8.3 °C 29.9in /  1012.4hPa WSW 4mph /  6.4km/h 2mph /  3.2km/h 93% 0.020in /  0.51mm 0.00 W/m2
19:14 48.0 °F /  8.9 °C 47.0 °F /  8.3 °C 29.9in /  1012.4hPa WSW 2mph /  3.2km/h 3mph /  4.8km/h 93% 0.030in /  0.76mm 0.00 W/m2
19:19 48.0 °F /  8.9 °C 47.0 °F /  8.3 °C 29.9in /  1012.4hPa SW 7mph /  11.3km/h 5mph /  8km/h 93% 0.030in /  0.76mm 0.00 W/m2
19:24 48.0 °F /  8.9 °C 47.0 °F /  8.3 °C 29.9in /  1012.4hPa SW 4mph /  6.4km/h 7mph /  11.3km/h 94% 0.030in /  0.76mm 0.00 W/m2
19:29 48.0 °F /  8.9 °C 47.0 °F /  8.3 °C 29.9in /  1012.4hPa SW 6mph /  9.7km/h 3mph /  4.8km/h 94% 0.020in /  0.51mm 0.00 W/m2
19:34 48.0 °F /  8.9 °C 47.0 °F /  8.3 °C 29.9in /  1012.4hPa South 7mph /  11.3km/h 6mph /  9.7km/h 94% 0.020in /  0.51mm 0.00 W/m2
19:39 48.0 °F /  8.9 °C 47.0 °F /  8.3 °C 29.9in /  1012.4hPa SSW 6mph /  9.7km/h 7mph /  11.3km/h 94% 0.020in /  0.51mm 0.00 W/m2
19:44 48.0 °F /  8.9 °C 47.0 °F /  8.3 °C 29.9in /  1012.4hPa WSW 6mph /  9.7km/h 6mph /  9.7km/h 94% 0.020in /  0.51mm 0.00 W/m2
19:49 48.0 °F /  8.9 °C 47.0 °F /  8.3 °C 29.9in /  1012.4hPa SW 4mph /  6.4km/h 6mph /  9.7km/h 94% 0.020in /  0.51mm 0.00 W/m2
19:54 48.0 °F /  8.9 °C 47.0 °F /  8.3 °C 29.9in /  1012.4hPa South 16mph /  25.7km/h 5mph /  8km/h 94% 0.010in /  0.25mm 0.00 W/m2
19:59 48.0 °F /  8.9 °C 47.0 °F /  8.3 °C 29.9in /  1012.4hPa SSW 16mph /  25.7km/h 16mph /  25.7km/h 94% 0.010in /  0.25mm 0.00 W/m2
20:04 48.0 °F /  8.9 °C 47.0 °F /  8.3 °C 29.9in /  1012.4hPa SSW 6mph /  9.7km/h 9mph /  14.5km/h 94% 0.010in /  0.25mm 0.00 W/m2
20:09 48.0 °F /  8.9 °C 47.0 °F /  8.3 °C 29.9in /  1012.4hPa SW 4mph /  6.4km/h 6mph /  9.7km/h 94% 0.010in /  0.25mm 0.00 W/m2
20:14 48.0 °F /  8.9 °C 47.0 °F /  8.3 °C 29.9in /  1012.4hPa SW 13mph /  20.9km/h 13mph /  20.9km/h 94% 0.010in /  0.25mm 0.00 W/m2
20:19 48.0 °F /  8.9 °C 47.0 °F /  8.3 °C 29.9in /  1012.4hPa SW 9mph /  14.5km/h 13mph /  20.9km/h 94% 0.000in /  0mm 0.00 W/m2
20:24 48.0 °F /  8.9 °C 47.0 °F /  8.3 °C 29.9in /  1012.4hPa WSW 7mph /  11.3km/h 7mph /  11.3km/h 94% 0.000in /  0mm 0.00 W/m2
20:29 48.0 °F /  8.9 °C 47.0 °F /  8.3 °C 29.9in /  1012.4hPa WSW 11mph /  17.7km/h 4mph /  6.4km/h 94% 0.000in /  0mm 0.00 W/m2
20:34 49.0 °F /  9.4 °C 47.0 °F /  8.3 °C 29.9in /  1012.4hPa SW 6mph /  9.7km/h 10mph /  16.1km/h 94% 0.000in /  0mm 0.00 W/m2
20:39 49.0 °F /  9.4 °C 47.0 °F /  8.3 °C 29.9in /  1012.4hPa WSW 4mph /  6.4km/h 6mph /  9.7km/h 94% 0.000in /  0mm 0.00 W/m2
20:44 49.0 °F /  9.4 °C 47.0 °F /  8.3 °C 29.9in /  1012.4hPa West 6mph /  9.7km/h 3mph /  4.8km/h 94% 0.000in /  0mm 0.00 W/m2
20:49 49.0 °F /  9.4 °C 47.0 °F /  8.3 °C 29.9in /  1012.4hPa WNW 4mph /  6.4km/h 6mph /  9.7km/h 94% 0.000in /  0mm 0.00 W/m2
20:54 49.0 °F /  9.4 °C 47.0 °F /  8.3 °C 29.9in /  1012.4hPa WNW 4mph /  6.4km/h 3mph /  4.8km/h 94% 0.000in /  0mm 0.00 W/m2
20:59 49.0 °F /  9.4 °C 47.0 °F /  8.3 °C 29.9in /  1012.4hPa West 6mph /  9.7km/h 3mph /  4.8km/h 94% 0.000in /  0mm 0.00 W/m2
21:04 49.0 °F /  9.4 °C 47.0 °F /  8.3 °C 29.9in /  1012.4hPa West 6mph /  9.7km/h 6mph /  9.7km/h 94% 0.000in /  0mm 0.00 W/m2
21:09 49.0 °F /  9.4 °C 47.0 °F /  8.3 °C 29.9in /  1012.4hPa WSW 4mph /  6.4km/h 1mph /  1.6km/h 94% 0.000in /  0mm 0.00 W/m2
21:14 49.0 °F /  9.4 °C 47.0 °F /  8.3 °C 29.9in /  1012.4hPa WSW 4mph /  6.4km/h 3mph /  4.8km/h 94% 0.000in /  0mm 0.00 W/m2
21:19 49.0 °F /  9.4 °C 47.0 °F /  8.3 °C 29.9in /  1012.4hPa West 4mph /  6.4km/h 3mph /  4.8km/h 94% 0.000in /  0mm 0.00 W/m2
21:24 49.0 °F /  9.4 °C 47.0 °F /  8.3 °C 29.9in /  1012.4hPa SW 9mph /  14.5km/h 3mph /  4.8km/h 94% 0.010in /  0.25mm 0.00 W/m2
21:29 49.0 °F /  9.4 °C 47.0 °F /  8.3 °C 29.9in /  1012.4hPa NW 16mph /  25.7km/h 9mph /  14.5km/h 94% 0.010in /  0.25mm 0.00 W/m2
21:34 49.0 °F /  9.4 °C 47.0 °F /  8.3 °C 29.9in /  1012.4hPa NW 16mph /  25.7km/h 16mph /  25.7km/h 94% 0.010in /  0.25mm 0.00 W/m2
21:39 49.0 °F /  9.4 °C 47.0 °F /  8.3 °C 29.9in /  1012.4hPa Calm   16mph /  25.7km/h 94% 0.010in /  0.25mm 0.00 W/m2
21:44 49.0 °F /  9.4 °C 47.0 °F /  8.3 °C 29.9in /  1012.4hPa NNW 7mph /  11.3km/h 3mph /  4.8km/h 94% 0.010in /  0.25mm 0.00 W/m2
21:49 49.0 °F /  9.4 °C 47.0 °F /  8.3 °C 29.9in /  1012.4hPa NNW 11mph /  17.7km/h 7mph /  11.3km/h 94% 0.010in /  0.25mm 0.00 W/m2
21:54 49.0 °F /  9.4 °C 47.0 °F /  8.3 °C 29.9in /  1012.4hPa NNW 13mph /  20.9km/h 10mph /  16.1km/h 94% 0.010in /  0.25mm 0.00 W/m2
21:59 49.0 °F /  9.4 °C 47.0 °F /  8.3 °C 29.9in /  1012.4hPa WNW 6mph /  9.7km/h 13mph /  20.9km/h 94% 0.010in /  0.25mm 0.00 W/m2
22:04 49.0 °F /  9.4 °C 47.0 °F /  8.3 °C 29.9in /  1012.4hPa WNW 7mph /  11.3km/h 6mph /  9.7km/h 94% 0.020in /  0.51mm 0.00 W/m2
22:09 49.0 °F /  9.4 °C 47.0 °F /  8.3 °C 29.9in /  1012.4hPa West 11mph /  17.7km/h 7mph /  11.3km/h 94% 0.020in /  0.51mm 0.00 W/m2
22:14 49.0 °F /  9.4 °C 47.0 °F /  8.3 °C 29.9in /  1012.4hPa WNW 9mph /  14.5km/h 10mph /  16.1km/h 94% 0.020in /  0.51mm 0.00 W/m2
22:19 49.0 °F /  9.4 °C 47.0 °F /  8.3 °C 29.9in /  1012.4hPa NW 4mph /  6.4km/h 9mph /  14.5km/h 94% 0.040in /  1.02mm 0.00 W/m2
22:23 49.0 °F /  9.4 °C 47.0 °F /  8.3 °C 29.9in /  1012.4hPa NW 20mph /  32.2km/h 20mph /  32.2km/h 94% 0.050in /  1.27mm 0.00 W/m2
El Dorado Weather
Compliments of Weather Underground - 2 mb